North Haven, CT

7:21 PM EST on November 22, 2014 (GMT -0500)
AF1HS Radio | Change Station
CLOSE
Current Station
Personal Weather Station
Location: North Haven, CT
Elevation: 85 ft
Nearby Weather Stations

Elev 85 ft 41.37 °N, 72.84 °W | Updated 6 seconds ago

Overcast
Overcast
42.3 °F
Feels Like 42 °F
N
0.0
Wind Variable Wind from South
Gusts 0.0 mph

Today
High -- | Low -- °F
--% Chance of Precip.
Yesterday
High -- | Low -- °F
Precip. -- in
6:47 AM 4:26 PM
New Moon, 0% visible
Pressure 30.22 in
Visibility 10.0 miles
Clouds Overcast 4800 ft
Windchill 42 °F
Dew Point 26 °F
Humidity 53%
Rainfall 0.00 in
Snow Depth Not available.
UV 0 out of 12
Pollen .10 out of 12
Air Quality Not available.
Flu Activity Not available.
METAR KHVN 222353Z 23011G20KT 10SM OVC048 08/M04 A3022 RMK AO2 SLP232 T00831044 10083 20056 56013

More Conditions Fewer Conditions

Pressure 30.22 in
Visibility 10.0 miles
Clouds Overcast 4800 ft
Windchill 42 °F
Dew Point 26 °F
Humidity 53%
Rainfall 0.00 in
Snow Depth Not available.
UV 0 out of 12
Pollen .10 out of 12
Air Quality Not available.
Flu Activity Not available.
METAR KHVN 222353Z 23011G20KT 10SM OVC048 08/M04 A3022 RMK AO2 SLP232 T00831044 10083 20056 56013

More Conditions Fewer Conditions

10-Day Weather Forecast

Almanac

Astronomy

Nov. 22, 2014 Rise Set
Actual Time
Civil Twilight
Nautical Twilight
Astronomical Twilight
Moon
Length of Visible Light
Length of Day
Tomorrow will be .
, % of the Moon is Illuminated

Today's Extremes

State Highs State Lows

Community

WunderPhotos

Upload Photos

1,772,932 photos uploaded!

WunderBlogs® & News

Nearby

Air Quality

  Air Quality AQ Index Pollutant
Not available.

Snow Depth

Station Depth Elevation

Earthquake Activity

City Distance Mag. Time & Date
Minimum magnitude displayed is 2.5.

Coastal Water Temperatures

Place Temperature

Nearby Weather Stations